Time;durP1;ratioP1;P1;durP2;ratioP2;P2;SDS_P1;SDS_P2;PMS_P1;PMS_P2;Temp;Humidity;BMP_temperature;BMP_pressure;BME280_temperature;BME280_humidity;BME280_pressure;Samples;Min_cycle;Max_cycle;Signal;HPM_P1;HPM_P2
2021/07/17 00:00:22;;;;;;;2.15;1.65;;;21.50;96.70;;;;;;5060416;28;20068;-72
2021/07/17 00:02:50;;;;;;;4.32;1.80;;;21.50;96.70;;;;;;5042424;28;20040;-72
2021/07/17 00:05:19;;;;;;;2.30;1.70;;;21.60;96.70;;;;;;5059907;28;20486;-72
2021/07/17 00:07:48;;;;;;;2.83;1.70;;;21.60;96.70;;;;;;5057417;28;20044;-72
2021/07/17 00:10:19;;;;;;;4.43;1.73;;;21.60;96.70;;;;;;5058369;28;20044;-72
2021/07/17 00:12:49;;;;;;;4.57;1.95;;;21.50;96.70;;;;;;5039507;28;20037;-71
2021/07/17 00:15:22;;;;;;;3.95;1.75;;;21.40;96.70;;;;;;5024816;28;20045;-72
2021/07/17 00:17:50;;;;;;;2.47;1.50;;;21.50;96.70;;;;;;5030519;28;20045;-72
2021/07/17 00:20:19;;;;;;;2.63;1.70;;;21.50;96.70;;;;;;5060024;28;20041;-72
2021/07/17 00:22:49;;;;;;;4.75;1.90;;;21.60;96.70;;;;;;5056952;28;20044;-72
2021/07/17 00:25:21;;;;;;;2.70;1.90;;;21.60;96.70;;;;;;5027231;28;20115;-73
2021/07/17 00:27:51;;;;;;;2.50;2.10;;;21.60;96.70;;;;;;5039772;28;20964;-72
2021/07/17 00:30:20;;;;;;;2.72;2.20;;;21.50;96.70;;;;;;5059971;28;20047;-73
2021/07/17 00:32:49;;;;;;;2.80;1.75;;;21.40;96.70;;;;;;5043400;28;20048;-73
2021/07/17 00:35:18;;;;;;;3.30;2.28;;;21.40;96.70;;;;;;5039961;28;20066;-72
2021/07/17 00:37:46;;;;;;;2.95;1.52;;;21.50;96.70;;;;;;5040639;28;20087;-72
2021/07/17 00:40:19;;;;;;;3.58;1.75;;;21.50;96.70;;;;;;5058063;28;20037;-72
2021/07/17 00:42:50;;;;;;;4.75;1.30;;;21.50;96.70;;;;;;5036706;28;20051;-73
2021/07/17 00:45:20;;;;;;;4.82;1.50;;;21.30;96.70;;;;;;5061200;28;20041;-73
2021/07/17 00:47:50;;;;;;;2.33;1.52;;;21.10;96.70;;;;;;5044239;28;20143;-73
2021/07/17 00:50:19;;;;;;;2.53;1.23;;;21.20;96.70;;;;;;5058105;28;20120;-72
2021/07/17 00:52:48;;;;;;;1.95;1.15;;;21.20;96.70;;;;;;5021139;28;20098;-73
2021/07/17 00:55:18;;;;;;;2.88;1.30;;;21.20;96.70;;;;;;5043073;28;20118;-73
2021/07/17 00:57:49;;;;;;;1.92;1.30;;;21.20;96.70;;;;;;5055042;28;20045;-73
2021/07/17 01:00:20;;;;;;;2.55;1.20;;;21.20;96.70;;;;;;5059113;28;20258;-72
2021/07/17 01:02:50;;;;;;;1.73;1.10;;;21.10;96.70;;;;;;5037129;28;20139;-73
2021/07/17 01:05:19;;;;;;;3.72;1.10;;;21.10;96.70;;;;;;5038105;28;20132;-72
2021/07/17 01:07:48;;;;;;;3.90;1.10;;;21.20;96.70;;;;;;5054980;28;20040;-73
2021/07/17 01:10:19;;;;;;;3.03;1.08;;;21.10;96.70;;;;;;5058805;28;20098;-72
2021/07/17 01:12:47;;;;;;;4.60;1.27;;;21.10;96.70;;;;;;5057985;28;20039;-72
2021/07/17 01:15:16;;;;;;;2.83;0.90;;;21.10;96.70;;;;;;5057624;28;20035;-73
2021/07/17 01:17:46;;;;;;;3.85;1.20;;;21.10;96.70;;;;;;5057916;28;20060;-72
2021/07/17 01:20:16;;;;;;;2.05;1.13;;;21.10;96.70;;;;;;5052003;28;20091;-72
2021/07/17 01:22:47;;;;;;;3.33;1.20;;;21.20;96.70;;;;;;5023281;28;20040;-72
2021/07/17 01:25:19;;;;;;;0.73;0.73;;;21.10;96.70;;;;;;5037888;28;20051;-72
2021/07/17 01:27:48;;;;;;;2.30;1.15;;;21.10;96.70;;;;;;5041642;28;20041;-72
2021/07/17 01:30:19;;;;;;;5.75;0.85;;;21.00;96.70;;;;;;5059354;28;20040;-72
2021/07/17 01:32:48;;;;;;;2.80;1.00;;;21.00;96.70;;;;;;5057243;28;20041;-72
2021/07/17 01:35:16;;;;;;;1.75;0.90;;;21.00;96.70;;;;;;5063128;28;20125;-72
2021/07/17 01:37:46;;;;;;;2.33;0.90;;;21.00;96.70;;;;;;5061668;28;20040;-72
2021/07/17 01:40:19;;;;;;;2.15;1.00;;;21.00;96.70;;;;;;5060060;28;20097;-73
2021/07/17 01:42:48;;;;;;;2.97;1.05;;;20.90;96.70;;;;;;5041748;28;20522;-73
2021/07/17 01:45:30;;;;;;;3.20;0.80;;;20.90;96.70;;;;;;5043031;28;20372;-73
2021/07/17 01:47:58;;;;;;;2.33;1.05;;;20.80;96.70;;;;;;5043820;28;20506;-73
2021/07/17 01:50:28;;;;;;;1.63;0.65;;;20.80;96.70;;;;;;5060524;28;20228;-73
2021/07/17 01:52:58;;;;;;;5.93;0.77;;;20.80;96.70;;;;;;5058767;28;20041;-73
2021/07/17 01:55:26;;;;;;;1.83;1.23;;;20.70;96.70;;;;;;5056979;28;20033;-73
2021/07/17 01:57:54;;;;;;;2.38;0.70;;;20.70;96.70;;;;;;5042650;28;20045;-73
2021/07/17 02:00:23;;;;;;;1.58;0.95;;;20.70;96.70;;;;;;5042753;28;20507;-73
2021/07/17 02:02:52;;;;;;;2.75;0.95;;;20.70;96.70;;;;;;5058251;28;20178;-73
2021/07/17 02:05:25;;;;;;;2.05;1.08;;;20.80;96.70;;;;;;5046004;28;20199;-73
2021/07/17 02:07:54;;;;;;;1.52;1.00;;;20.80;96.70;;;;;;5042882;28;20131;-73
2021/07/17 02:10:25;;;;;;;2.60;0.98;;;20.70;96.70;;;;;;5062739;28;20052;-73
2021/07/17 02:12:58;;;;;;;2.85;0.90;;;20.70;96.70;;;;;;5055411;28;20127;-72
2021/07/17 02:15:29;;;;;;;4.25;1.00;;;20.70;96.70;;;;;;5045154;28;20090;-72
2021/07/17 02:17:59;;;;;;;1.90;0.77;;;20.70;96.70;;;;;;5040187;28;20497;-73
2021/07/17 02:20:27;;;;;;;0.90;0.70;;;20.70;96.70;;;;;;5065096;28;20084;-72
2021/07/17 02:22:56;;;;;;;3.63;0.90;;;20.60;96.70;;;;;;5049647;28;20517;-72
2021/07/17 02:25:26;;;;;;;5.63;1.55;;;20.60;96.70;;;;;;5043654;28;20048;-72
2021/07/17 02:27:54;;;;;;;1.38;0.85;;;20.60;96.70;;;;;;5058063;28;20032;-72
2021/07/17 02:30:22;;;;;;;2.58;0.70;;;20.60;96.70;;;;;;5052385;28;20037;-72
2021/07/17 02:32:50;;;;;;;2.92;0.95;;;20.60;96.70;;;;;;5034012;28;20669;-72
2021/07/17 02:35:18;;;;;;;2.78;0.95;;;20.60;96.70;;;;;;5042812;28;20379;-72
2021/07/17 02:37:47;;;;;;;3.20;0.80;;;20.60;96.70;;;;;;5058966;28;20071;-72
2021/07/17 02:40:15;;;;;;;2.00;0.70;;;20.70;96.70;;;;;;5060302;28;20450;-72
2021/07/17 02:42:45;;;;;;;1.02;0.90;;;20.70;96.70;;;;;;5056713;28;20053;-72
2021/07/17 02:45:13;;;;;;;3.20;0.90;;;20.60;96.70;;;;;;5061700;28;20367;-72
2021/07/17 02:47:41;;;;;;;3.58;1.00;;;20.60;96.70;;;;;;5057634;28;20044;-72
2021/07/17 02:50:11;;;;;;;1.00;0.68;;;20.60;96.70;;;;;;5060832;28;20410;-72
2021/07/17 02:52:39;;;;;;;3.75;0.85;;;20.70;96.70;;;;;;5023036;28;20037;-72
2021/07/17 02:55:09;;;;;;;3.78;1.10;;;20.50;96.70;;;;;;5040434;28;20044;-72
2021/07/17 02:57:37;;;;;;;2.63;1.10;;;20.50;96.70;;;;;;5033312;28;20425;-72
2021/07/17 03:00:10;;;;;;;4.05;1.58;;;20.60;96.70;;;;;;5059300;28;20145;-73
2021/07/17 03:02:39;;;;;;;4.97;1.63;;;20.50;96.70;;;;;;5057480;28;20576;-73
2021/07/17 03:05:09;;;;;;;4.97;1.50;;;20.70;96.70;;;;;;5043476;28;20135;-73
2021/07/17 03:07:37;;;;;;;3.28;1.13;;;20.50;96.70;;;;;;5036672;28;20103;-73
2021/07/17 03:10:07;;;;;;;3.05;1.70;;;20.50;96.70;;;;;;5041248;28;20044;-72
2021/07/17 03:12:35;;;;;;;2.33;1.67;;;20.60;96.70;;;;;;5041669;28;21356;-72
2021/07/17 03:15:04;;;;;;;5.32;2.47;;;20.50;96.70;;;;;;5059883;28;20056;-72
2021/07/17 03:17:34;;;;;;;3.55;2.08;;;20.40;96.70;;;;;;5057626;28;20060;-72
2021/07/17 03:20:03;;;;;;;4.78;1.58;;;20.40;96.70;;;;;;5050922;28;20140;-73
2021/07/17 03:22:32;;;;;;;3.17;1.70;;;20.40;96.70;;;;;;5039597;28;20093;-73
2021/07/17 03:25:00;;;;;;;3.03;1.73;;;20.40;96.70;;;;;;5060271;28;20037;-73
2021/07/17 03:27:28;;;;;;;4.55;1.85;;;20.40;96.70;;;;;;5059263;28;20055;-72
2021/07/17 03:29:56;;;;;;;3.75;2.05;;;20.40;96.70;;;;;;5057731;28;20111;-73
2021/07/17 03:32:26;;;;;;;8.07;2.85;;;20.40;96.70;;;;;;5057535;28;20045;-73
2021/07/17 03:34:56;;;;;;;5.75;2.83;;;20.50;96.70;;;;;;5057599;28;20044;-73
2021/07/17 03:37:29;;;;;;;3.72;2.63;;;20.50;96.70;;;;;;5059824;28;20033;-73
2021/07/17 03:39:58;;;;;;;3.65;3.13;;;20.60;96.70;;;;;;5038479;28;20068;-73
2021/07/17 03:42:31;;;;;;;6.03;3.25;;;20.50;96.70;;;;;;5041776;28;20044;-73
2021/07/17 03:44:59;;;;;;;7.22;3.25;;;20.30;96.70;;;;;;5059064;28;20029;-73
2021/07/17 03:47:28;;;;;;;5.10;3.30;;;20.20;96.70;;;;;;5016206;28;20181;-73
2021/07/17 03:49:57;;;;;;;5.45;3.22;;;20.30;96.70;;;;;;5024704;28;20090;-73
2021/07/17 03:52:26;;;;;;;4.78;3.35;;;20.30;96.70;;;;;;5040791;28;20324;-73
2021/07/17 03:54:54;;;;;;;6.38;3.50;;;20.40;96.70;;;;;;5041983;28;20139;-73
2021/07/17 03:57:22;;;;;;;3.88;2.70;;;20.30;96.70;;;;;;5056292;28;20045;-73
2021/07/17 03:59:50;;;;;;;4.50;2.58;;;20.30;96.70;;;;;;5058201;28;20120;-73
2021/07/17 04:02:19;;;;;;;6.63;3.20;;;20.30;96.70;;;;;;5040443;28;20048;-73
2021/07/17 04:04:49;;;;;;;3.92;3.00;;;20.30;96.70;;;;;;5042716;28;20044;-73
2021/07/17 04:07:18;;;;;;;6.25;3.95;;;20.40;96.70;;;;;;5038272;28;20183;-72
2021/07/17 04:09:47;;;;;;;5.85;3.65;;;20.40;96.70;;;;;;5059950;28;20128;-73
2021/07/17 04:12:15;;;;;;;7.03;3.60;;;20.50;96.70;;;;;;5036399;28;20608;-73
2021/07/17 04:14:43;;;;;;;5.50;3.80;;;20.50;96.70;;;;;;5061619;28;20043;-73
2021/07/17 04:17:11;;;;;;;7.90;3.80;;;20.50;96.70;;;;;;5057465;28;20565;-73
2021/07/17 04:19:40;;;;;;;5.97;3.58;;;20.50;96.70;;;;;;5022921;28;20457;-73
2021/07/17 04:22:08;;;;;;;5.55;2.35;;;20.50;96.70;;;;;;5053984;28;20048;-73
2021/07/17 04:24:38;;;;;;;2.95;1.90;;;20.50;96.70;;;;;;5057701;28;20040;-73
2021/07/17 04:27:06;;;;;;;3.88;1.85;;;20.50;96.70;;;;;;5055378;28;20301;-73
2021/07/17 04:29:34;;;;;;;3.08;2.00;;;20.40;96.70;;;;;;5056697;28;20439;-73
2021/07/17 04:32:03;;;;;;;3.70;2.03;;;20.40;96.70;;;;;;5057254;28;20140;-73
2021/07/17 04:34:32;;;;;;;5.63;2.42;;;20.50;96.70;;;;;;5042356;28;20048;-73
2021/07/17 04:37:01;;;;;;;3.25;1.98;;;20.50;96.70;;;;;;5057100;28;20491;-73
2021/07/17 04:39:29;;;;;;;3.70;2.08;;;20.50;96.70;;;;;;5055869;28;20033;-73
2021/07/17 04:41:59;;;;;;;5.53;2.22;;;20.50;96.70;;;;;;5052050;28;20067;-73
2021/07/17 04:44:28;;;;;;;3.92;2.03;;;20.50;96.70;;;;;;5055885;28;20126;-73
2021/07/17 04:46:57;;;;;;;2.70;1.92;;;20.60;96.70;;;;;;5039772;28;20132;-73
2021/07/17 04:49:25;;;;;;;5.43;2.58;;;20.70;96.70;;;;;;5059762;28;20434;-73
2021/07/17 04:51:53;;;;;;;4.05;2.22;;;20.70;96.70;;;;;;5053017;28;20133;-73
2021/07/17 04:54:22;;;;;;;8.13;2.30;;;20.60;96.70;;;;;;5059758;28;20148;-74
2021/07/17 04:56:51;;;;;;;3.75;2.40;;;20.70;96.70;;;;;;5056968;28;20060;-73
2021/07/17 04:59:20;;;;;;;4.38;2.28;;;20.70;96.70;;;;;;5055914;28;20068;-73
2021/07/17 05:01:48;;;;;;;4.30;2.25;;;20.70;96.70;;;;;;5038654;28;20417;-73
2021/07/17 05:04:17;;;;;;;3.40;1.98;;;20.80;96.70;;;;;;5044136;28;20438;-73
2021/07/17 05:06:45;;;;;;;4.28;2.10;;;20.80;96.70;;;;;;5053941;28;20123;-73
2021/07/17 05:09:13;;;;;;;1.77;1.60;;;20.90;96.70;;;;;;5060923;28;20577;-73
2021/07/17 05:11:42;;;;;;;4.72;1.85;;;20.90;96.70;;;;;;5040837;28;20072;-73
2021/07/17 05:14:10;;;;;;;4.47;2.17;;;20.80;96.70;;;;;;5058215;28;20043;-73
2021/07/17 05:16:40;;;;;;;5.72;2.08;;;20.90;96.70;;;;;;5036216;28;20106;-72
2021/07/17 05:19:09;;;;;;;5.60;2.00;;;20.90;96.70;;;;;;5039687;28;20117;-73
2021/07/17 05:21:37;;;;;;;5.53;2.60;;;20.90;96.70;;;;;;5042708;28;20120;-73
2021/07/17 05:24:05;;;;;;;2.40;2.20;;;20.90;96.70;;;;;;5062796;28;20068;-73
2021/07/17 05:26:33;;;;;;;6.03;2.50;;;21.00;96.70;;;;;;5042142;28;20115;-73
2021/07/17 05:29:02;;;;;;;3.25;2.13;;;21.00;96.70;;;;;;5042615;28;20434;-73
2021/07/17 05:31:30;;;;;;;4.05;1.95;;;21.00;96.70;;;;;;5041012;28;20450;-73
2021/07/17 05:34:00;;;;;;;4.70;2.15;;;21.00;96.70;;;;;;5063328;28;20048;-73
2021/07/17 05:36:34;;;;;;;3.83;2.10;;;21.10;96.70;;;;;;5058071;28;20044;-72
2021/07/17 05:39:02;;;;;;;3.72;1.63;;;21.10;96.70;;;;;;5058605;28;20041;-73
2021/07/17 05:41:31;;;;;;;3.15;2.00;;;21.10;96.70;;;;;;5062509;28;20033;-73
2021/07/17 05:43:59;;;;;;;2.80;2.15;;;21.10;96.70;;;;;;5062599;28;20428;-73
2021/07/17 05:46:27;;;;;;;3.80;2.17;;;21.10;96.70;;;;;;5043499;28;20068;-73
2021/07/17 05:48:56;;;;;;;13.10;7.72;;;21.10;96.70;;;;;;5043049;28;20682;-73
2021/07/17 05:51:26;;;;;;;12.32;6.38;;;21.10;96.70;;;;;;5062280;28;20044;-73
2021/07/17 05:53:54;;;;;;;8.98;5.22;;;21.10;96.70;;;;;;5063258;28;20356;-73
2021/07/17 05:56:22;;;;;;;7.22;3.85;;;21.20;96.70;;;;;;5041082;28;20106;-73
2021/07/17 05:58:50;;;;;;;4.60;2.83;;;21.10;96.70;;;;;;5044043;28;20575;-73
2021/07/17 06:01:19;;;;;;;4.80;2.35;;;21.20;96.70;;;;;;5039882;28;20147;-73
2021/07/17 06:03:47;;;;;;;2.95;2.20;;;21.20;96.70;;;;;;5041855;28;20040;-73
2021/07/17 06:06:16;;;;;;;4.15;2.10;;;21.20;96.70;;;;;;5060974;28;20045;-73
2021/07/17 06:08:45;;;;;;;4.30;2.20;;;21.30;96.70;;;;;;5047735;28;20044;-73
2021/07/17 06:11:14;;;;;;;5.57;2.20;;;21.30;96.70;;;;;;5062915;28;20098;-73
2021/07/17 06:13:42;;;;;;;4.22;2.00;;;21.20;96.70;;;;;;5024905;28;20044;-73
2021/07/17 06:16:10;;;;;;;3.45;1.98;;;21.20;96.70;;;;;;5061268;28;20103;-73
2021/07/17 06:18:39;;;;;;;5.93;2.90;;;21.30;96.70;;;;;;5057955;28;20040;-73
2021/07/17 06:21:07;;;;;;;5.50;3.22;;;21.30;96.70;;;;;;5059793;28;20033;-73
2021/07/17 06:23:39;;;;;;;5.38;2.90;;;21.40;96.70;;;;;;5060379;28;20147;-73
2021/07/17 06:26:09;;;;;;;6.38;2.63;;;21.50;96.70;;;;;;5033741;28;20094;-73
2021/07/17 06:28:39;;;;;;;4.30;2.22;;;21.50;96.70;;;;;;5046031;28;20403;-73
2021/07/17 06:31:08;;;;;;;3.08;2.15;;;21.60;96.70;;;;;;5040639;28;20123;-73
2021/07/17 06:33:37;;;;;;;3.38;2.10;;;21.50;96.70;;;;;;5047173;28;20567;-73
2021/07/17 06:36:05;;;;;;;4.43;1.80;;;21.50;96.70;;;;;;5059781;28;20510;-73
2021/07/17 06:38:34;;;;;;;3.58;1.70;;;21.50;96.70;;;;;;5062438;28;20067;-73
2021/07/17 06:41:02;;;;;;;3.17;1.70;;;21.50;96.70;;;;;;5037584;28;20048;-73
2021/07/17 06:43:32;;;;;;;3.78;2.20;;;21.50;96.70;;;;;;5057233;28;20044;-74
2021/07/17 06:46:01;;;;;;;5.25;1.92;;;21.50;96.70;;;;;;5059502;28;20062;-75
2021/07/17 06:48:29;;;;;;;5.40;1.80;;;21.40;96.70;;;;;;5058693;28;20051;-74
2021/07/17 06:50:58;;;;;;;4.57;2.33;;;21.40;96.70;;;;;;5059902;28;20075;-76
2021/07/17 06:53:27;;;;;;;3.78;2.38;;;21.50;96.70;;;;;;5040396;28;20837;-76
2021/07/17 06:55:55;;;;;;;4.18;1.85;;;21.50;96.70;;;;;;5063532;28;20398;-75
2021/07/17 06:58:24;;;;;;;4.22;2.22;;;21.50;96.70;;;;;;5041016;28;20057;-73
2021/07/17 07:00:53;;;;;;;4.20;2.40;;;21.50;96.70;;;;;;5058472;28;20051;-74
2021/07/17 07:03:22;;;;;;;3.80;2.30;;;21.60;96.70;;;;;;5059790;28;20123;-74
2021/07/17 07:05:51;;;;;;;6.95;1.83;;;21.60;96.70;;;;;;5059212;28;20037;-74
2021/07/17 07:08:20;;;;;;;7.65;3.63;;;21.70;96.70;;;;;;5062721;28;20070;-74
2021/07/17 07:10:48;;;;;;;3.90;2.35;;;21.80;96.70;;;;;;5043184;28;20047;-74
2021/07/17 07:13:17;;;;;;;3.83;2.50;;;21.70;96.70;;;;;;5056586;28;20524;-74
2021/07/17 07:15:46;;;;;;;3.70;2.15;;;21.80;96.70;;;;;;5040141;28;20048;-73
2021/07/17 07:18:16;;;;;;;5.22;2.38;;;21.90;96.70;;;;;;5027776;28;20915;-72
2021/07/17 07:20:45;;;;;;;5.32;2.13;;;22.00;96.70;;;;;;5039509;28;20387;-74
2021/07/17 07:23:15;;;;;;;3.60;1.92;;;22.00;96.70;;;;;;5055448;28;20300;-73
2021/07/17 07:25:43;;;;;;;3.65;2.28;;;22.00;96.70;;;;;;5059209;28;20075;-73
2021/07/17 07:28:17;;;;;;;3.85;2.00;;;22.00;96.70;;;;;;5058114;28;20287;-73
2021/07/17 07:30:45;;;;;;;5.93;2.50;;;22.00;96.70;;;;;;5025814;28;20050;-74
2021/07/17 07:33:16;;;;;;;3.88;2.60;;;21.90;96.70;;;;;;5053824;28;20055;-73
2021/07/17 07:35:44;;;;;;;4.70;2.50;;;21.90;96.70;;;;;;5054123;28;20477;-73
2021/07/17 07:38:13;;;;;;;2.92;2.30;;;22.00;96.70;;;;;;5059788;28;20410;-73
2021/07/17 07:40:41;;;;;;;3.47;2.08;;;22.10;96.70;;;;;;5058703;28;20045;-73
2021/07/17 07:43:10;;;;;;;2.88;2.20;;;22.30;96.70;;;;;;5044531;28;20517;-73
2021/07/17 07:45:40;;;;;;;2.58;2.35;;;22.30;96.70;;;;;;5058695;28;20047;-75
2021/07/17 07:48:13;;;;;;;4.07;2.13;;;22.40;96.70;;;;;;5023706;28;20049;-73
2021/07/17 07:50:43;;;;;;;3.85;2.35;;;22.40;96.70;;;;;;5040160;28;20048;-72
2021/07/17 07:53:11;;;;;;;3.05;2.42;;;22.60;96.70;;;;;;5057023;28;20051;-73
2021/07/17 07:55:40;;;;;;;3.92;2.38;;;22.60;96.70;;;;;;5057426;28;20069;-73
2021/07/17 07:58:08;;;;;;;3.03;2.60;;;22.70;96.70;;;;;;5054737;28;20484;-73
2021/07/17 08:00:37;;;;;;;4.40;2.45;;;22.70;96.70;;;;;;5024321;28;20048;-73
2021/07/17 08:03:05;;;;;;;4.22;2.90;;;22.70;96.70;;;;;;5044988;28;20044;-73
2021/07/17 08:05:34;;;;;;;3.38;2.50;;;22.90;96.70;;;;;;5054921;28;20029;-74
2021/07/17 08:08:04;;;;;;;8.52;3.42;;;22.90;96.70;;;;;;5052490;28;20043;-74
2021/07/17 08:10:33;;;;;;;5.43;2.78;;;22.90;96.70;;;;;;5042983;28;20666;-74
2021/07/17 08:13:02;;;;;;;5.20;3.15;;;23.00;96.70;;;;;;5037322;28;20136;-74
2021/07/17 08:15:32;;;;;;;5.90;2.92;;;23.10;96.70;;;;;;5059078;28;21364;-74
2021/07/17 08:18:00;;;;;;;4.20;2.88;;;23.10;96.70;;;;;;5042496;28;20102;-75
2021/07/17 08:20:28;;;;;;;3.47;2.70;;;23.20;96.70;;;;;;5040625;28;20149;-75
2021/07/17 08:22:57;;;;;;;6.80;3.28;;;23.30;96.70;;;;;;5041945;28;20072;-75
2021/07/17 08:25:28;;;;;;;5.15;3.42;;;23.40;96.70;;;;;;5062241;28;20606;-74
2021/07/17 08:27:56;;;;;;;5.75;3.28;;;23.50;96.70;;;;;;5057942;28;20033;-74
2021/07/17 08:30:25;;;;;;;5.20;3.58;;;23.60;96.70;;;;;;5056034;28;20037;-74
2021/07/17 08:32:54;;;;;;;7.93;4.10;;;23.60;96.70;;;;;;5041464;28;20040;-74
2021/07/17 08:35:23;;;;;;;4.90;3.78;;;23.60;96.70;;;;;;5037749;28;20078;-73
2021/07/17 08:37:52;;;;;;;7.45;3.88;;;23.70;96.70;;;;;;5034289;28;20110;-74
2021/07/17 08:40:21;;;;;;;5.72;4.28;;;23.90;96.70;;;;;;5047515;28;20053;-74
2021/07/17 08:42:53;;;;;;;7.30;4.18;;;23.90;96.70;;;;;;5050266;28;20125;-75
2021/07/17 08:45:22;;;;;;;5.07;3.90;;;24.00;96.70;;;;;;5050217;28;20056;-74
2021/07/17 08:47:52;;;;;;;5.82;4.30;;;24.00;96.70;;;;;;5019382;28;20049;-75
2021/07/17 08:50:23;;;;;;;8.77;4.15;;;24.20;96.70;;;;;;5045924;28;20575;-75
2021/07/17 08:52:53;;;;;;;7.65;4.00;;;24.10;96.70;;;;;;5037862;28;20051;-75
2021/07/17 08:55:25;;;;;;;11.82;5.03;;;24.10;96.70;;;;;;5040007;28;20453;-74
2021/07/17 08:57:55;;;;;;;9.50;4.53;;;24.10;96.70;;;;;;5040808;28;20045;-74
2021/07/17 09:00:26;;;;;;;6.35;4.63;;;24.10;96.70;;;;;;5059497;28;20064;-74
2021/07/17 09:02:58;;;;;;;11.45;4.97;;;24.10;96.70;;;;;;5040270;28;20658;-73
2021/07/17 09:05:30;;;;;;;5.53;4.03;;;24.10;96.70;;;;;;5039337;28;20040;-74
2021/07/17 09:07:59;;;;;;;4.95;3.67;;;24.20;96.70;;;;;;5055246;28;20601;-72
2021/07/17 09:10:36;;;;;;;6.10;3.72;;;24.20;96.70;;;;;;5055907;28;20049;-73
2021/07/17 09:13:12;;;;;;;5.40;3.17;;;24.20;96.70;;;;;;5058179;28;20102;-73
2021/07/17 09:15:52;;;;;;;4.13;3.00;;;24.30;96.70;;;;;;5040502;28;20433;-73
2021/07/17 09:18:44;;;;;;;4.30;3.90;;;24.30;96.70;;;;;;5022352;28;20090;-75
2021/07/17 09:21:15;;;;;;;6.15;4.47;;;24.20;96.70;;;;;;5040009;28;20052;-75
2021/07/17 09:23:49;;;;;;;4.97;4.15;;;24.10;96.70;;;;;;5034319;28;20169;-74
2021/07/17 09:26:19;;;;;;;6.35;3.80;;;24.00;96.70;;;;;;5039276;28;20041;-74
2021/07/17 09:29:00;;;;;;;4.72;3.83;;;24.10;96.70;;;;;;5020143;28;20289;-75
2021/07/17 09:31:30;;;;;;;4.35;3.80;;;24.20;96.70;;;;;;5056255;28;20391;-75
2021/07/17 09:34:05;;;;;;;7.60;4.40;;;24.30;96.70;;;;;;5056091;28;20082;-75
2021/07/17 09:36:47;;;;;;;5.10;4.70;;;24.30;96.70;;;;;;5039902;28;20052;-75
2021/07/17 09:39:17;;;;;;;7.03;5.00;;;24.30;96.70;;;;;;5035671;28;20802;-74
2021/07/17 09:41:53;;;;;;;5.55;4.88;;;24.20;96.70;;;;;;5061899;28;20036;-73
2021/07/17 09:44:24;;;;;;;5.38;3.95;;;24.30;96.70;;;;;;5055605;28;20045;-73
2021/07/17 09:46:53;;;;;;;7.57;4.00;;;24.40;96.70;;;;;;5031364;28;20118;-72
2021/07/17 09:49:25;;;;;;;7.10;4.90;;;24.60;96.70;;;;;;5056686;28;20134;-73
2021/07/17 09:52:07;;;;;;;8.05;4.75;;;24.70;96.70;;;;;;5061396;28;20106;-72
2021/07/17 09:54:38;;;;;;;4.50;4.05;;;24.70;96.70;;;;;;5056709;28;20036;-72
2021/07/17 09:57:07;;;;;;;10.93;5.30;;;24.70;96.70;;;;;;5041292;28;20046;-72
2021/07/17 09:59:37;;;;;;;6.40;4.15;;;24.80;96.70;;;;;;5039215;28;20037;-72
2021/07/17 10:02:05;;;;;;;6.75;4.63;;;24.90;96.70;;;;;;5062740;28;20037;-73
2021/07/17 10:04:48;;;;;;;8.82;5.25;;;24.80;96.70;;;;;;5042542;28;20460;-74
2021/07/17 10:07:20;;;;;;;6.88;6.18;;;24.80;96.70;;;;;;5063522;28;20072;-73
2021/07/17 10:09:50;;;;;;;7.20;5.75;;;24.60;96.70;;;;;;5028473;28;20056;-72
2021/07/17 10:12:32;;;;;;;7.20;6.50;;;24.50;96.70;;;;;;5045640;28;20545;-73
2021/07/17 10:15:06;;;;;;;9.50;7.20;;;24.50;96.70;;;;;;5059976;28;20493;-72
2021/07/17 10:17:36;;;;;;;8.98;6.20;;;24.60;96.70;;;;;;5044778;28;20115;-73
2021/07/17 10:20:06;;;;;;;6.82;6.22;;;24.50;96.70;;;;;;5042004;28;20048;-73
2021/07/17 10:22:36;;;;;;;7.53;6.30;;;24.50;96.70;;;;;;5034150;28;20040;-74
2021/07/17 10:25:06;;;;;;;7.22;6.53;;;24.40;96.70;;;;;;5043832;28;20383;-71
2021/07/17 10:27:35;;;;;;;6.10;5.57;;;24.40;96.70;;;;;;5012587;28;20124;-72
2021/07/17 10:30:07;;;;;;;7.85;5.63;;;24.30;96.70;;;;;;5039531;28;20049;-72
2021/07/17 10:32:51;;;;;;;8.20;6.10;;;24.20;96.70;;;;;;5039303;28;20033;-72
2021/07/17 10:35:19;;;;;;;8.77;6.18;;;24.10;96.70;;;;;;5037246;28;20037;-72
2021/07/17 10:37:51;;;;;;;6.45;5.68;;;24.20;96.70;;;;;;5040038;28;20064;-72
2021/07/17 10:40:22;;;;;;;8.43;6.65;;;24.10;96.70;;;;;;5058717;28;20550;-72
2021/07/17 10:42:54;;;;;;;7.03;6.32;;;24.20;96.70;;;;;;5041168;28;20451;-72
2021/07/17 10:45:38;;;;;;;6.88;6.18;;;24.20;96.70;;;;;;5038423;28;20463;-72
2021/07/17 10:48:23;;;;;;;7.22;6.20;;;24.40;96.70;;;;;;5039679;28;20029;-74
2021/07/17 10:50:52;;;;;;;8.70;6.10;;;24.40;96.70;;;;;;5039005;28;20110;-74
2021/07/17 10:53:43;;;;;;;9.50;6.50;;;24.50;96.70;;;;;;5041328;28;20493;-74
2021/07/17 10:56:40;;;;;;;6.90;6.13;;;24.50;96.70;;;;;;5042429;28;20102;-74
2021/07/17 10:59:42;;;;;;;7.20;5.75;;;24.50;96.70;;;;;;5037654;28;20047;-72
2021/07/17 11:02:22;;;;;;;7.00;5.10;;;24.70;96.70;;;;;;5038820;28;20053;-72
2021/07/17 11:04:54;;;;;;;4.40;3.83;;;24.90;96.70;;;;;;5036254;28;20084;-72
2021/07/17 11:07:43;;;;;;;6.57;3.25;;;25.00;96.70;;;;;;5040463;28;20056;-72
2021/07/17 11:10:19;;;;;;;3.83;3.08;;;25.10;96.70;;;;;;5038577;28;20127;-72
2021/07/17 11:12:51;;;;;;;5.45;3.40;;;25.10;96.70;;;;;;5019097;28;20049;-72
2021/07/17 11:15:47;;;;;;;3.40;2.90;;;25.20;96.70;;;;;;5041106;28;20419;-72
2021/07/17 11:18:36;;;;;;;5.50;3.15;;;25.30;96.70;;;;;;5060100;28;20053;-72
2021/07/17 11:21:10;;;;;;;4.72;2.75;;;25.30;96.70;;;;;;5060127;28;20032;-74
2021/07/17 11:23:44;;;;;;;3.85;2.92;;;25.20;96.70;;;;;;5057334;28;20584;-74
2021/07/17 11:26:20;;;;;;;5.35;2.70;;;25.20;96.70;;;;;;5047270;28;20147;-74
2021/07/17 11:29:03;;;;;;;4.70;2.60;;;25.20;96.70;;;;;;5058011;28;20670;-74
2021/07/17 11:31:39;;;;;;;5.80;3.30;;;25.20;96.70;;;;;;5057427;28;20044;-73
2021/07/17 11:34:35;;;;;;;5.40;3.30;;;25.20;96.70;;;;;;5044259;28;20047;-74
2021/07/17 11:37:09;;;;;;;6.05;2.95;;;25.20;96.70;;;;;;5055819;28;20053;-74
2021/07/17 11:39:43;;;;;;;5.45;3.05;;;25.30;96.70;;;;;;5038812;28;20409;-73
2021/07/17 11:42:14;;;;;;;4.10;2.60;;;25.40;96.70;;;;;;5040550;28;20044;-73
2021/07/17 11:44:46;;;;;;;4.45;2.65;;;25.60;96.70;;;;;;5054930;28;20041;-73
2021/07/17 11:47:16;;;;;;;9.90;2.58;;;25.80;96.70;;;;;;5053932;28;20050;-73
2021/07/17 11:49:49;;;;;;;4.50;2.60;;;26.00;96.70;;;;;;5042491;28;20079;-74
2021/07/17 11:52:20;;;;;;;4.57;1.92;;;26.20;96.70;;;;;;5057981;28;20122;-74
2021/07/17 11:54:54;;;;;;;3.08;2.13;;;26.30;96.70;;;;;;5058907;28;20496;-74
2021/07/17 11:57:26;;;;;;;3.00;2.30;;;26.40;96.70;;;;;;5055814;28;20061;-74
2021/07/17 12:00:08;;;;;;;2.53;2.33;;;26.60;96.70;;;;;;5025828;28;20048;-74
2021/07/17 12:02:56;;;;;;;2.95;2.28;;;26.70;96.70;;;;;;5041091;28;20041;-75
2021/07/17 12:05:27;;;;;;;4.20;2.28;;;26.80;96.70;;;;;;5052803;28;20131;-74
2021/07/17 12:07:55;;;;;;;4.93;2.30;;;26.60;96.70;;;;;;5057599;28;20058;-74
2021/07/17 12:10:25;;;;;;;3.38;1.92;;;26.60;96.70;;;;;;5056668;28;20449;-74
2021/07/17 12:12:55;;;;;;;3.08;2.25;;;26.70;96.70;;;;;;5040531;28;20134;-73
2021/07/17 12:15:25;;;;;;;2.80;2.38;;;26.80;96.70;;;;;;5040200;28;20502;-74
2021/07/17 12:17:57;;;;;;;3.08;1.88;;;26.80;96.70;;;;;;5053642;28;20513;-74
2021/07/17 12:20:29;;;;;;;2.22;1.75;;;26.90;96.70;;;;;;5039556;28;20033;-74
2021/07/17 12:23:06;;;;;;;2.05;1.45;;;26.70;96.70;;;;;;5037324;28;20040;-75
2021/07/17 12:25:36;;;;;;;3.30;1.80;;;26.70;96.70;;;;;;5041443;28;20139;-74
2021/07/17 12:28:11;;;;;;;4.68;2.10;;;26.60;96.70;;;;;;5053250;28;20044;-74
2021/07/17 12:30:42;;;;;;;3.25;1.52;;;26.40;96.70;;;;;;5056657;28;20094;-74
2021/07/17 12:33:31;;;;;;;3.72;1.50;;;26.20;96.70;;;;;;5038814;28;20044;-74
2021/07/17 12:36:10;;;;;;;2.92;1.45;;;26.20;96.70;;;;;;5055246;28;20057;-74
2021/07/17 12:38:41;;;;;;;3.42;1.70;;;26.20;96.70;;;;;;5059129;28;20330;-74
2021/07/17 12:41:13;;;;;;;3.17;1.77;;;26.20;96.70;;;;;;5040170;28;20094;-74
2021/07/17 12:43:43;;;;;;;4.88;1.90;;;26.10;96.70;;;;;;5041715;28;20056;-74
2021/07/17 12:46:15;;;;;;;2.70;1.50;;;26.10;96.70;;;;;;5042185;28;20044;-74
2021/07/17 12:48:49;;;;;;;2.67;1.52;;;26.00;96.70;;;;;;5034816;28;20053;-74
2021/07/17 12:51:22;;;;;;;3.35;1.48;;;26.00;96.70;;;;;;5061266;28;20139;-73
2021/07/17 12:53:52;;;;;;;2.35;1.30;;;26.00;96.70;;;;;;5060607;28;20055;-73
2021/07/17 12:56:33;;;;;;;1.95;1.40;;;26.10;96.70;;;;;;5041344;28;20057;-74
2021/07/17 12:59:08;;;;;;;2.88;1.42;;;26.10;96.70;;;;;;5057219;28;20036;-76
2021/07/17 13:01:37;;;;;;;5.93;1.67;;;26.20;96.70;;;;;;5043170;28;20037;-76
2021/07/17 13:04:09;;;;;;;4.03;1.40;;;26.30;96.70;;;;;;5045534;28;20049;-73